Setif, Algeria
Current Conditions -  °F | °C
As of 2:00 PM on Saturday 01 Nov 2014 (Local Time) from DAAS Reporting Station
Scattered Clouds Scattered Clouds  
Wind Chill: 66°   Ceiling: Unl
Heat Index: 66°   Visibility: 6mi
Dew Point: 41°   Wind: 2mph
Humidity: 40%   Direction: 140°SE
Pressure: 30.24"   Gusts: NA
Location:  36.08°N, 5.44°E
Report Text: DAAS 011300Z 14002KT 9999 SCT030 19/05 Q1024
Loading
Personal Weather Stations






























Interactive Weather Map
Tropical Storm Tracking
New forecast layout! Learn more

10-Day Weather Forecast

Advertisements
Track Severe Weather on mobile